sensor_id;sensor_type;location;lat;lon;timestamp;pressure;altitude;pressure_sealevel;temperature;humidity
78149;BME280;67396;42.664;23.382;2024-01-25T00:01:25;95553.63;;;3.19;66.55
78149;BME280;67396;42.664;23.382;2024-01-25T00:03:51;95555.06;;;3.08;67.96
78149;BME280;67396;42.664;23.382;2024-01-25T00:06:16;95549.34;;;3.10;68.81
78149;BME280;67396;42.664;23.382;2024-01-25T00:08:42;95558.13;;;3.15;68.79
78149;BME280;67396;42.664;23.382;2024-01-25T00:11:07;95542.81;;;3.02;69.75
78149;BME280;67396;42.664;23.382;2024-01-25T00:13:34;95527.22;;;2.99;69.96
78149;BME280;67396;42.664;23.382;2024-01-25T00:16:00;95500.09;;;2.99;69.53
78149;BME280;67396;42.664;23.382;2024-01-25T00:18:25;95470.44;;;2.94;70.48
78149;BME280;67396;42.664;23.382;2024-01-25T00:20:51;95451.28;;;2.99;69.35
78149;BME280;67396;42.664;23.382;2024-01-25T00:23:17;95444.72;;;3.00;68.59
78149;BME280;67396;42.664;23.382;2024-01-25T00:25:42;95433.59;;;2.84;68.72
78149;BME280;67396;42.664;23.382;2024-01-25T00:28:08;95440.16;;;2.75;69.79
78149;BME280;67396;42.664;23.382;2024-01-25T00:30:33;95435.41;;;2.72;69.72
78149;BME280;67396;42.664;23.382;2024-01-25T00:32:59;95448.63;;;2.73;69.41
78149;BME280;67396;42.664;23.382;2024-01-25T00:35:25;95469.84;;;2.80;68.42
78149;BME280;67396;42.664;23.382;2024-01-25T00:37:51;95441.72;;;2.93;67.43
78149;BME280;67396;42.664;23.382;2024-01-25T00:40:17;95436.44;;;2.96;66.35
78149;BME280;67396;42.664;23.382;2024-01-25T00:42:45;95428.00;;;2.98;66.44
78149;BME280;67396;42.664;23.382;2024-01-25T00:45:21;95419.66;;;3.03;66.93
78149;BME280;67396;42.664;23.382;2024-01-25T00:47:47;95412.25;;;3.21;66.63
78149;BME280;67396;42.664;23.382;2024-01-25T00:50:13;95413.72;;;3.10;67.66
78149;BME280;67396;42.664;23.382;2024-01-25T00:52:39;95421.25;;;3.04;68.14
78149;BME280;67396;42.664;23.382;2024-01-25T00:55:06;95416.91;;;3.12;67.98
78149;BME280;67396;42.664;23.382;2024-01-25T00:57:31;95433.31;;;3.24;67.13
78149;BME280;67396;42.664;23.382;2024-01-25T00:59:58;95448.22;;;3.38;66.27
78149;BME280;67396;42.664;23.382;2024-01-25T01:02:25;95447.16;;;3.31;65.96
78149;BME280;67396;42.664;23.382;2024-01-25T01:04:56;95451.13;;;3.33;66.44
78149;BME280;67396;42.664;23.382;2024-01-25T01:07:22;95458.03;;;3.22;67.42
78149;BME280;67396;42.664;23.382;2024-01-25T01:09:48;95460.75;;;3.22;68.32
78149;BME280;67396;42.664;23.382;2024-01-25T01:12:13;95452.13;;;3.20;68.28
78149;BME280;67396;42.664;23.382;2024-01-25T01:14:39;95430.28;;;3.17;68.45
78149;BME280;67396;42.664;23.382;2024-01-25T01:17:04;95416.72;;;3.25;68.39
78149;BME280;67396;42.664;23.382;2024-01-25T01:19:31;95408.19;;;3.35;67.81
78149;BME280;67396;42.664;23.382;2024-01-25T01:21:56;95401.84;;;3.31;67.72
78149;BME280;67396;42.664;23.382;2024-01-25T01:24:22;95389.84;;;3.32;68.19
78149;BME280;67396;42.664;23.382;2024-01-25T01:26:47;95388.47;;;3.18;68.91
78149;BME280;67396;42.664;23.382;2024-01-25T01:29:14;95393.41;;;3.24;68.32
78149;BME280;67396;42.664;23.382;2024-01-25T01:31:39;95395.28;;;3.32;65.66
78149;BME280;67396;42.664;23.382;2024-01-25T01:34:05;95393.69;;;3.31;65.35
78149;BME280;67396;42.664;23.382;2024-01-25T01:36:30;95391.34;;;3.21;65.46
78149;BME280;67396;42.664;23.382;2024-01-25T01:38:56;95383.50;;;2.90;66.87
78149;BME280;67396;42.664;23.382;2024-01-25T01:41:21;95384.97;;;2.88;67.82
78149;BME280;67396;42.664;23.382;2024-01-25T01:43:47;95390.53;;;2.91;68.63
78149;BME280;67396;42.664;23.382;2024-01-25T01:46:34;95394.78;;;3.01;68.26
78149;BME280;67396;42.664;23.382;2024-01-25T01:49:03;95382.78;;;3.11;67.41
78149;BME280;67396;42.664;23.382;2024-01-25T01:51:30;95364.22;;;3.21;66.42
78149;BME280;67396;42.664;23.382;2024-01-25T01:53:57;95363.09;;;3.22;66.67
78149;BME280;67396;42.664;23.382;2024-01-25T01:56:27;95361.19;;;3.23;66.03
78149;BME280;67396;42.664;23.382;2024-01-25T01:58:58;95351.13;;;3.23;65.37
78149;BME280;67396;42.664;23.382;2024-01-25T02:01:25;95345.72;;;3.23;65.02
78149;BME280;67396;42.664;23.382;2024-01-25T02:03:51;95349.66;;;3.26;65.78
78149;BME280;67396;42.664;23.382;2024-01-25T02:06:16;95359.75;;;3.25;66.43
78149;BME280;67396;42.664;23.382;2024-01-25T02:08:42;95357.78;;;3.05;67.55
78149;BME280;67396;42.664;23.382;2024-01-25T02:11:11;95355.09;;;2.96;67.97
78149;BME280;67396;42.664;23.382;2024-01-25T02:13:38;95342.16;;;3.02;68.11
78149;BME280;67396;42.664;23.382;2024-01-25T02:16:05;95345.50;;;3.08;68.28
78149;BME280;67396;42.664;23.382;2024-01-25T02:18:32;95354.59;;;3.03;68.76
78149;BME280;67396;42.664;23.382;2024-01-25T02:20:57;95352.19;;;3.01;68.95
78149;BME280;67396;42.664;23.382;2024-01-25T02:23:23;95353.00;;;3.02;69.43
78149;BME280;67396;42.664;23.382;2024-01-25T02:25:49;95351.56;;;3.05;68.49
78149;BME280;67396;42.664;23.382;2024-01-25T02:28:14;95352.19;;;3.01;68.53
78149;BME280;67396;42.664;23.382;2024-01-25T02:30:40;95337.56;;;2.94;69.13
78149;BME280;67396;42.664;23.382;2024-01-25T02:33:05;95330.88;;;2.91;68.86
78149;BME280;67396;42.664;23.382;2024-01-25T02:35:31;95340.03;;;2.78;69.85
78149;BME280;67396;42.664;23.382;2024-01-25T02:37:56;95325.06;;;2.81;69.59
78149;BME280;67396;42.664;23.382;2024-01-25T02:40:22;95330.53;;;2.63;70.69
78149;BME280;67396;42.664;23.382;2024-01-25T02:42:47;95349.47;;;2.72;70.50
78149;BME280;67396;42.664;23.382;2024-01-25T02:45:13;95344.19;;;2.76;70.35
78149;BME280;67396;42.664;23.382;2024-01-25T02:47:38;95341.31;;;2.81;70.02
78149;BME280;67396;42.664;23.382;2024-01-25T02:50:04;95335.47;;;2.70;69.65
78149;BME280;67396;42.664;23.382;2024-01-25T02:52:30;95321.59;;;2.72;70.27
78149;BME280;67396;42.664;23.382;2024-01-25T02:54:55;95331.59;;;2.80;70.22
78149;BME280;67396;42.664;23.382;2024-01-25T02:57:21;95330.78;;;2.79;70.09
78149;BME280;67396;42.664;23.382;2024-01-25T02:59:46;95338.13;;;2.79;70.18
78149;BME280;67396;42.664;23.382;2024-01-25T03:02:12;95322.97;;;2.78;70.06
78149;BME280;67396;42.664;23.382;2024-01-25T03:04:38;95328.22;;;2.83;69.34
78149;BME280;67396;42.664;23.382;2024-01-25T03:07:04;95332.03;;;2.82;69.99
78149;BME280;67396;42.664;23.382;2024-01-25T03:09:29;95325.50;;;2.83;69.39
78149;BME280;67396;42.664;23.382;2024-01-25T03:11:55;95313.09;;;2.73;70.00
78149;BME280;67396;42.664;23.382;2024-01-25T03:14:20;95307.09;;;2.68;70.29
78149;BME280;67396;42.664;23.382;2024-01-25T03:16:46;95309.78;;;2.68;70.35
78149;BME280;67396;42.664;23.382;2024-01-25T03:19:12;95311.81;;;2.79;70.61
78149;BME280;67396;42.664;23.382;2024-01-25T03:21:37;95299.97;;;2.84;70.64
78149;BME280;67396;42.664;23.382;2024-01-25T03:24:03;95285.03;;;2.78;72.90
78149;BME280;67396;42.664;23.382;2024-01-25T03:26:29;95297.91;;;2.89;74.98
78149;BME280;67396;42.664;23.382;2024-01-25T03:28:54;95300.84;;;3.05;76.66
78149;BME280;67396;42.664;23.382;2024-01-25T03:31:20;95310.88;;;3.34;77.59
78149;BME280;67396;42.664;23.382;2024-01-25T03:33:45;95308.59;;;3.57;77.63
78149;BME280;67396;42.664;23.382;2024-01-25T03:36:13;95324.34;;;4.17;76.61
78149;BME280;67396;42.664;23.382;2024-01-25T03:38:39;95324.53;;;4.45;75.17
78149;BME280;67396;42.664;23.382;2024-01-25T03:41:04;95308.59;;;4.68;74.13
78149;BME280;67396;42.664;23.382;2024-01-25T03:43:30;95291.25;;;4.84;73.39
78149;BME280;67396;42.664;23.382;2024-01-25T03:45:55;95265.78;;;4.89;72.58
78149;BME280;67396;42.664;23.382;2024-01-25T03:48:21;95271.44;;;4.96;72.58
78149;BME280;67396;42.664;23.382;2024-01-25T03:50:47;95281.97;;;4.98;72.54
78149;BME280;67396;42.664;23.382;2024-01-25T03:53:13;95275.06;;;5.00;71.96
78149;BME280;67396;42.664;23.382;2024-01-25T03:55:40;95275.50;;;5.02;71.76
78149;BME280;67396;42.664;23.382;2024-01-25T03:58:06;95264.06;;;5.09;71.48
78149;BME280;67396;42.664;23.382;2024-01-25T04:00:32;95258.63;;;5.09;70.89
78149;BME280;67396;42.664;23.382;2024-01-25T04:02:58;95263.50;;;5.15;70.16
78149;BME280;67396;42.664;23.382;2024-01-25T04:05:23;95267.75;;;5.28;69.07
78149;BME280;67396;42.664;23.382;2024-01-25T04:07:49;95248.69;;;5.41;68.61
78149;BME280;67396;42.664;23.382;2024-01-25T04:10:14;95259.03;;;5.35;68.26
78149;BME280;67396;42.664;23.382;2024-01-25T04:12:40;95250.16;;;5.38;68.07
78149;BME280;67396;42.664;23.382;2024-01-25T04:15:06;95252.78;;;5.35;68.14
78149;BME280;67396;42.664;23.382;2024-01-25T04:17:31;95237.41;;;5.26;68.00
78149;BME280;67396;42.664;23.382;2024-01-25T04:19:57;95243.19;;;5.25;68.29
78149;BME280;67396;42.664;23.382;2024-01-25T04:22:22;95233.09;;;5.13;68.67
78149;BME280;67396;42.664;23.382;2024-01-25T04:24:48;95231.97;;;5.02;69.26
78149;BME280;67396;42.664;23.382;2024-01-25T04:27:15;95247.03;;;5.12;69.03
78149;BME280;67396;42.664;23.382;2024-01-25T04:29:40;95245.56;;;5.26;67.75
78149;BME280;67396;42.664;23.382;2024-01-25T04:32:07;95243.91;;;5.10;68.70
78149;BME280;67396;42.664;23.382;2024-01-25T04:34:33;95252.94;;;5.02;69.05
78149;BME280;67396;42.664;23.382;2024-01-25T04:36:58;95239.13;;;5.07;68.98
78149;BME280;67396;42.664;23.382;2024-01-25T04:39:24;95241.59;;;5.12;68.21
78149;BME280;67396;42.664;23.382;2024-01-25T04:41:49;95260.22;;;5.10;68.21
78149;BME280;67396;42.664;23.382;2024-01-25T04:44:15;95276.09;;;4.96;67.78
78149;BME280;67396;42.664;23.382;2024-01-25T04:46:42;95268.81;;;4.75;68.47
78149;BME280;67396;42.664;23.382;2024-01-25T04:49:09;95287.09;;;4.75;68.09
78149;BME280;67396;42.664;23.382;2024-01-25T04:51:35;95275.66;;;4.57;68.54
78149;BME280;67396;42.664;23.382;2024-01-25T04:54:00;95270.63;;;4.35;69.30
78149;BME280;67396;42.664;23.382;2024-01-25T04:56:26;95280.78;;;4.26;69.17
78149;BME280;67396;42.664;23.382;2024-01-25T04:58:51;95282.44;;;4.06;69.82
78149;BME280;67396;42.664;23.382;2024-01-25T05:01:17;95286.97;;;4.02;69.84
78149;BME280;67396;42.664;23.382;2024-01-25T05:03:43;95282.97;;;3.99;69.84
78149;BME280;67396;42.664;23.382;2024-01-25T05:06:08;95297.69;;;3.98;69.40
78149;BME280;67396;42.664;23.382;2024-01-25T05:08:33;95315.00;;;3.94;69.59
78149;BME280;67396;42.664;23.382;2024-01-25T05:10:59;95299.84;;;3.72;70.99
78149;BME280;67396;42.664;23.382;2024-01-25T05:13:25;95315.22;;;3.68;71.12
78149;BME280;67396;42.664;23.382;2024-01-25T05:15:50;95292.38;;;3.69;71.13
78149;BME280;67396;42.664;23.382;2024-01-25T05:18:16;95303.75;;;3.83;70.04
78149;BME280;67396;42.664;23.382;2024-01-25T05:20:41;95327.94;;;4.09;69.24
78149;BME280;67396;42.664;23.382;2024-01-25T05:23:07;95331.06;;;3.99;69.79
78149;BME280;67396;42.664;23.382;2024-01-25T05:25:32;95327.56;;;3.98;69.46
78149;BME280;67396;42.664;23.382;2024-01-25T05:27:58;95344.25;;;4.09;69.07
78149;BME280;67396;42.664;23.382;2024-01-25T05:30:25;95338.06;;;4.21;68.58
78149;BME280;67396;42.664;23.382;2024-01-25T05:32:51;95341.34;;;4.26;68.66
78149;BME280;67396;42.664;23.382;2024-01-25T05:35:19;95334.25;;;4.34;68.01
78149;BME280;67396;42.664;23.382;2024-01-25T05:37:44;95341.97;;;4.44;67.42
78149;BME280;67396;42.664;23.382;2024-01-25T05:40:14;95343.00;;;4.51;67.09
78149;BME280;67396;42.664;23.382;2024-01-25T05:42:39;95351.06;;;4.60;66.89
78149;BME280;67396;42.664;23.382;2024-01-25T05:45:06;95358.09;;;4.61;66.37
78149;BME280;67396;42.664;23.382;2024-01-25T05:47:32;95349.03;;;4.69;66.19
78149;BME280;67396;42.664;23.382;2024-01-25T05:49:57;95363.03;;;4.92;74.53
78149;BME280;67396;42.664;23.382;2024-01-25T05:52:23;95379.81;;;5.18;65.00
78149;BME280;67396;42.664;23.382;2024-01-25T05:54:49;95364.38;;;5.22;64.13
78149;BME280;67396;42.664;23.382;2024-01-25T05:57:15;95367.47;;;5.09;63.73
78149;BME280;67396;42.664;23.382;2024-01-25T05:59:42;95361.56;;;5.07;63.99
78149;BME280;67396;42.664;23.382;2024-01-25T06:02:07;95369.25;;;5.05;63.77
78149;BME280;67396;42.664;23.382;2024-01-25T06:04:34;95365.50;;;4.97;63.96
78149;BME280;67396;42.664;23.382;2024-01-25T06:06:59;95377.97;;;4.86;64.40
78149;BME280;67396;42.664;23.382;2024-01-25T06:09:25;95370.59;;;4.86;65.14
78149;BME280;67396;42.664;23.382;2024-01-25T06:11:51;95363.47;;;4.82;64.79
78149;BME280;67396;42.664;23.382;2024-01-25T06:14:16;95366.75;;;4.87;65.54
78149;BME280;67396;42.664;23.382;2024-01-25T06:16:42;95382.16;;;4.83;65.44
78149;BME280;67396;42.664;23.382;2024-01-25T06:19:08;95373.31;;;4.86;65.61
78149;BME280;67396;42.664;23.382;2024-01-25T06:21:33;95382.28;;;4.87;65.11
78149;BME280;67396;42.664;23.382;2024-01-25T06:24:01;95381.47;;;4.86;65.61
78149;BME280;67396;42.664;23.382;2024-01-25T06:26:27;95381.47;;;4.86;65.64
78149;BME280;67396;42.664;23.382;2024-01-25T06:28:52;95372.84;;;4.84;65.39
78149;BME280;67396;42.664;23.382;2024-01-25T06:31:18;95383.03;;;4.75;65.37
78149;BME280;67396;42.664;23.382;2024-01-25T06:33:43;95372.06;;;4.84;65.02
78149;BME280;67396;42.664;23.382;2024-01-25T06:36:12;95361.97;;;4.84;65.15
78149;BME280;67396;42.664;23.382;2024-01-25T06:38:40;95367.78;;;4.83;65.52
78149;BME280;67396;42.664;23.382;2024-01-25T06:41:06;95357.00;;;4.86;65.52
78149;BME280;67396;42.664;23.382;2024-01-25T06:43:32;95372.41;;;4.82;65.96
78149;BME280;67396;42.664;23.382;2024-01-25T06:45:57;95365.94;;;4.87;65.79
78149;BME280;67396;42.664;23.382;2024-01-25T06:48:23;95348.75;;;4.83;65.75
78149;BME280;67396;42.664;23.382;2024-01-25T06:50:48;95354.75;;;4.88;66.06
78149;BME280;67396;42.664;23.382;2024-01-25T06:53:16;95346.13;;;4.99;65.63
78149;BME280;67396;42.664;23.382;2024-01-25T06:55:41;95332.06;;;4.97;65.64
78149;BME280;67396;42.664;23.382;2024-01-25T06:58:07;95331.16;;;4.92;65.97
78149;BME280;67396;42.664;23.382;2024-01-25T07:00:32;95327.31;;;4.93;65.90
78149;BME280;67396;42.664;23.382;2024-01-25T07:02:58;95333.56;;;5.06;65.52
78149;BME280;67396;42.664;23.382;2024-01-25T07:05:23;95328.66;;;5.12;65.44
78149;BME280;67396;42.664;23.382;2024-01-25T07:07:49;95327.53;;;5.13;65.28
78149;BME280;67396;42.664;23.382;2024-01-25T07:10:15;95329.13;;;5.14;65.20
78149;BME280;67396;42.664;23.382;2024-01-25T07:12:40;95324.69;;;5.34;64.06
78149;BME280;67396;42.664;23.382;2024-01-25T07:15:06;95337.25;;;5.38;63.83
78149;BME280;67396;42.664;23.382;2024-01-25T07:17:32;95347.16;;;5.30;64.40
78149;BME280;67396;42.664;23.382;2024-01-25T07:19:57;95328.34;;;5.25;64.56
78149;BME280;67396;42.664;23.382;2024-01-25T07:22:23;95328.44;;;5.29;64.67
78149;BME280;67396;42.664;23.382;2024-01-25T07:24:48;95349.66;;;5.36;64.58
78149;BME280;67396;42.664;23.382;2024-01-25T07:27:14;95346.22;;;5.39;64.26
78149;BME280;67396;42.664;23.382;2024-01-25T07:29:40;95347.81;;;5.40;63.82
78149;BME280;67396;42.664;23.382;2024-01-25T07:32:05;95356.09;;;5.43;63.42
78149;BME280;67396;42.664;23.382;2024-01-25T07:34:31;95351.66;;;5.39;63.78
78149;BME280;67396;42.664;23.382;2024-01-25T07:36:56;95370.25;;;5.49;63.42
78149;BME280;67396;42.664;23.382;2024-01-25T07:39:22;95372.66;;;5.50;63.10
78149;BME280;67396;42.664;23.382;2024-01-25T07:41:47;95347.34;;;5.50;63.58
78149;BME280;67396;42.664;23.382;2024-01-25T07:44:13;95375.72;;;5.49;63.38
78149;BME280;67396;42.664;23.382;2024-01-25T07:46:38;95377.19;;;5.46;63.20
78149;BME280;67396;42.664;23.382;2024-01-25T07:49:04;95387.84;;;5.51;63.43
78149;BME280;67396;42.664;23.382;2024-01-25T07:51:30;95388.31;;;5.53;63.15
78149;BME280;67396;42.664;23.382;2024-01-25T07:53:55;95398.72;;;5.63;62.85
78149;BME280;67396;42.664;23.382;2024-01-25T07:56:21;95395.66;;;5.65;62.11
78149;BME280;67396;42.664;23.382;2024-01-25T07:58:49;95395.56;;;5.61;62.58
78149;BME280;67396;42.664;23.382;2024-01-25T08:01:18;95398.81;;;5.79;61.80
78149;BME280;67396;42.664;23.382;2024-01-25T08:03:44;95393.69;;;6.02;61.29
78149;BME280;67396;42.664;23.382;2024-01-25T08:06:10;95390.50;;;6.00;61.33
78149;BME280;67396;42.664;23.382;2024-01-25T08:08:36;95395.41;;;5.82;61.61
78149;BME280;67396;42.664;23.382;2024-01-25T08:11:02;95391.44;;;5.80;62.09
78149;BME280;67396;42.664;23.382;2024-01-25T08:13:29;95405.16;;;5.83;61.28
78149;BME280;67396;42.664;23.382;2024-01-25T08:15:55;95397.25;;;5.66;62.50
78149;BME280;67396;42.664;23.382;2024-01-25T08:18:21;95406.28;;;5.82;61.60
78149;BME280;67396;42.664;23.382;2024-01-25T08:20:49;95392.59;;;5.79;61.54
78149;BME280;67396;42.664;23.382;2024-01-25T08:23:15;95399.72;;;5.83;61.67
78149;BME280;67396;42.664;23.382;2024-01-25T08:25:41;95403.34;;;5.87;61.16
78149;BME280;67396;42.664;23.382;2024-01-25T08:28:06;95399.50;;;5.76;61.74
78149;BME280;67396;42.664;23.382;2024-01-25T08:30:32;95398.03;;;5.79;61.43
78149;BME280;67396;42.664;23.382;2024-01-25T08:32:59;95403.91;;;5.81;61.45
78149;BME280;67396;42.664;23.382;2024-01-25T08:35:24;95403.16;;;5.80;62.00
78149;BME280;67396;42.664;23.382;2024-01-25T08:37:50;95391.66;;;5.75;61.37
78149;BME280;67396;42.664;23.382;2024-01-25T08:40:15;95395.19;;;5.75;60.76
78149;BME280;67396;42.664;23.382;2024-01-25T08:42:41;95401.75;;;5.86;60.28
78149;BME280;67396;42.664;23.382;2024-01-25T08:45:07;95395.41;;;5.82;60.64
78149;BME280;67396;42.664;23.382;2024-01-25T08:47:37;95402.22;;;5.76;60.49
78149;BME280;67396;42.664;23.382;2024-01-25T08:50:03;95399.63;;;5.80;60.38
78149;BME280;67396;42.664;23.382;2024-01-25T08:52:29;95399.53;;;5.88;59.17
78149;BME280;67396;42.664;23.382;2024-01-25T08:54:55;95400.16;;;5.85;59.29
78149;BME280;67396;42.664;23.382;2024-01-25T08:57:20;95410.72;;;5.87;59.58
78149;BME280;67396;42.664;23.382;2024-01-25T08:59:46;95415.97;;;5.92;60.05
78149;BME280;67396;42.664;23.382;2024-01-25T09:02:11;95408.09;;;6.02;59.41
78149;BME280;67396;42.664;23.382;2024-01-25T09:04:37;95389.44;;;6.17;58.94
78149;BME280;67396;42.664;23.382;2024-01-25T09:07:03;95398.88;;;6.07;59.65
78149;BME280;67396;42.664;23.382;2024-01-25T09:09:28;95399.59;;;6.04;60.35
78149;BME280;67396;42.664;23.382;2024-01-25T09:11:54;95402.25;;;6.16;59.86
78149;BME280;67396;42.664;23.382;2024-01-25T09:14:20;95396.16;;;6.07;59.77
78149;BME280;67396;42.664;23.382;2024-01-25T09:16:45;95394.88;;;6.17;60.45
78149;BME280;67396;42.664;23.382;2024-01-25T09:19:11;95403.72;;;6.26;59.10
78149;BME280;67396;42.664;23.382;2024-01-25T09:21:39;95391.81;;;6.18;60.14
78149;BME280;67396;42.664;23.382;2024-01-25T09:24:05;95405.22;;;6.23;60.06
78149;BME280;67396;42.664;23.382;2024-01-25T09:26:32;95401.69;;;6.23;60.14
78149;BME280;67396;42.664;23.382;2024-01-25T09:28:58;95400.91;;;6.22;60.37
78149;BME280;67396;42.664;23.382;2024-01-25T09:31:23;95383.50;;;6.27;60.00
78149;BME280;67396;42.664;23.382;2024-01-25T09:33:49;95391.13;;;6.21;59.96
78149;BME280;67396;42.664;23.382;2024-01-25T09:36:16;95377.84;;;6.20;60.35
78149;BME280;67396;42.664;23.382;2024-01-25T09:38:41;95386.13;;;6.23;59.79
78149;BME280;67396;42.664;23.382;2024-01-25T09:41:08;95386.25;;;6.42;60.39
78149;BME280;67396;42.664;23.382;2024-01-25T09:43:33;95379.19;;;6.54;59.03
78149;BME280;67396;42.664;23.382;2024-01-25T09:46:00;95381.25;;;6.45;59.32
78149;BME280;67396;42.664;23.382;2024-01-25T09:48:29;95374.72;;;6.33;60.12
78149;BME280;67396;42.664;23.382;2024-01-25T09:50:55;95382.28;;;6.24;60.05
78149;BME280;67396;42.664;23.382;2024-01-25T09:53:22;95374.88;;;6.25;60.35
78149;BME280;67396;42.664;23.382;2024-01-25T09:55:58;95372.69;;;6.30;60.00
78149;BME280;67396;42.664;23.382;2024-01-25T09:58:34;95361.53;;;6.35;60.16
78149;BME280;67396;42.664;23.382;2024-01-25T10:01:01;95378.09;;;6.42;59.16
78149;BME280;67396;42.664;23.382;2024-01-25T10:03:27;95354.50;;;6.34;59.61
78149;BME280;67396;42.664;23.382;2024-01-25T10:05:52;95357.81;;;6.28;59.95
78149;BME280;67396;42.664;23.382;2024-01-25T10:08:18;95355.88;;;6.28;59.73
78149;BME280;67396;42.664;23.382;2024-01-25T10:10:46;95352.22;;;6.36;60.02
78149;BME280;67396;42.664;23.382;2024-01-25T10:13:12;95354.16;;;6.36;59.61
78149;BME280;67396;42.664;23.382;2024-01-25T10:15:39;95344.03;;;6.36;59.62
78149;BME280;67396;42.664;23.382;2024-01-25T10:18:07;95336.13;;;6.31;60.05
78149;BME280;67396;42.664;23.382;2024-01-25T10:20:39;95329.56;;;6.48;60.17
78149;BME280;67396;42.664;23.382;2024-01-25T10:23:05;95318.22;;;6.62;59.93
78149;BME280;67396;42.664;23.382;2024-01-25T10:25:34;95323.50;;;6.55;59.59
78149;BME280;67396;42.664;23.382;2024-01-25T10:28:02;95329.41;;;6.57;59.54
78149;BME280;67396;42.664;23.382;2024-01-25T10:30:31;95319.19;;;6.54;60.69
78149;BME280;67396;42.664;23.382;2024-01-25T10:32:59;95317.53;;;6.65;59.83
78149;BME280;67396;42.664;23.382;2024-01-25T10:35:25;95310.38;;;6.60;59.53
78149;BME280;67396;42.664;23.382;2024-01-25T10:37:51;95319.97;;;6.54;60.29
78149;BME280;67396;42.664;23.382;2024-01-25T10:40:18;95313.56;;;6.62;60.06
78149;BME280;67396;42.664;23.382;2024-01-25T10:42:44;95314.16;;;6.56;60.28
78149;BME280;67396;42.664;23.382;2024-01-25T10:45:10;95318.16;;;6.58;61.04
78149;BME280;67396;42.664;23.382;2024-01-25T10:47:37;95295.00;;;6.68;59.43
78149;BME280;67396;42.664;23.382;2024-01-25T10:50:03;95305.47;;;6.66;59.08
78149;BME280;67396;42.664;23.382;2024-01-25T10:52:30;95302.75;;;6.66;60.63
78149;BME280;67396;42.664;23.382;2024-01-25T10:54:57;95300.25;;;6.61;60.67
78149;BME280;67396;42.664;23.382;2024-01-25T10:57:23;95284.34;;;6.63;60.45
78149;BME280;67396;42.664;23.382;2024-01-25T10:59:49;95283.31;;;6.67;60.63
78149;BME280;67396;42.664;23.382;2024-01-25T11:02:18;95291.56;;;6.71;59.86
78149;BME280;67396;42.664;23.382;2024-01-25T11:04:53;95303.38;;;6.75;59.74
78149;BME280;67396;42.664;23.382;2024-01-25T11:07:20;95303.03;;;6.76;59.62
78149;BME280;67396;42.664;23.382;2024-01-25T11:09:51;95297.91;;;6.75;59.13
78149;BME280;67396;42.664;23.382;2024-01-25T11:12:19;95283.66;;;6.82;59.45
78149;BME280;67396;42.664;23.382;2024-01-25T11:14:45;95277.50;;;6.85;58.77
78149;BME280;67396;42.664;23.382;2024-01-25T11:17:21;95265.78;;;6.84;58.51
78149;BME280;67396;42.664;23.382;2024-01-25T11:19:50;95280.91;;;6.82;58.99
78149;BME280;67396;42.664;23.382;2024-01-25T11:22:16;95268.53;;;6.84;59.25
78149;BME280;67396;42.664;23.382;2024-01-25T11:24:42;95267.44;;;6.89;59.31
78149;BME280;67396;42.664;23.382;2024-01-25T11:27:09;95257.31;;;6.89;59.11
78149;BME280;67396;42.664;23.382;2024-01-25T11:29:35;95258.91;;;6.90;57.94
78149;BME280;67396;42.664;23.382;2024-01-25T11:32:03;95260.50;;;6.75;58.80
78149;BME280;67396;42.664;23.382;2024-01-25T11:34:30;95257.69;;;6.72;58.22
78149;BME280;67396;42.664;23.382;2024-01-25T11:36:57;95257.44;;;6.77;58.43
78149;BME280;67396;42.664;23.382;2024-01-25T11:39:23;95240.88;;;6.70;58.79
78149;BME280;67396;42.664;23.382;2024-01-25T11:41:51;95243.69;;;6.73;58.39
78149;BME280;67396;42.664;23.382;2024-01-25T11:44:17;95254.78;;;6.65;58.53
78149;BME280;67396;42.664;23.382;2024-01-25T11:46:42;95259.97;;;6.70;57.69
78149;BME280;67396;42.664;23.382;2024-01-25T11:49:08;95260.69;;;6.67;57.23
78149;BME280;67396;42.664;23.382;2024-01-25T11:51:34;95258.31;;;6.65;58.22
78149;BME280;67396;42.664;23.382;2024-01-25T11:53:59;95257.75;;;6.60;58.04
78149;BME280;67396;42.664;23.382;2024-01-25T11:56:31;95258.16;;;6.58;57.74
78149;BME280;67396;42.664;23.382;2024-01-25T11:58:57;95245.31;;;6.59;58.15
78149;BME280;67396;42.664;23.382;2024-01-25T12:01:24;95230.78;;;6.55;58.22
78149;BME280;67396;42.664;23.382;2024-01-25T12:03:51;95243.97;;;6.68;57.60
78149;BME280;67396;42.664;23.382;2024-01-25T12:06:17;95250.56;;;6.67;56.95
78149;BME280;67396;42.664;23.382;2024-01-25T12:08:44;95257.69;;;6.72;56.63
78149;BME280;67396;42.664;23.382;2024-01-25T12:11:11;95256.47;;;6.85;56.41
78149;BME280;67396;42.664;23.382;2024-01-25T12:13:43;95249.25;;;6.77;56.84
78149;BME280;67396;42.664;23.382;2024-01-25T12:16:09;95243.25;;;6.71;56.24
78149;BME280;67396;42.664;23.382;2024-01-25T12:18:35;95223.19;;;6.64;57.43
78149;BME280;67396;42.664;23.382;2024-01-25T12:21:03;95240.25;;;6.61;56.82
78149;BME280;67396;42.664;23.382;2024-01-25T12:23:47;95236.56;;;6.53;57.93
78149;BME280;67396;42.664;23.382;2024-01-25T12:26:13;95222.06;;;6.49;57.74
78149;BME280;67396;42.664;23.382;2024-01-25T12:28:41;95221.91;;;6.58;57.76
78149;BME280;67396;42.664;23.382;2024-01-25T12:31:07;95209.91;;;6.62;57.34
78149;BME280;67396;42.664;23.382;2024-01-25T12:33:34;95196.47;;;6.54;57.82
78149;BME280;67396;42.664;23.382;2024-01-25T12:36:02;95184.06;;;6.56;57.10
78149;BME280;67396;42.664;23.382;2024-01-25T12:38:27;95176.13;;;6.67;56.34
78149;BME280;67396;42.664;23.382;2024-01-25T12:40:55;95176.81;;;6.79;56.60
78149;BME280;67396;42.664;23.382;2024-01-25T12:43:21;95180.91;;;6.89;55.39
78149;BME280;67396;42.664;23.382;2024-01-25T12:45:49;95166.84;;;6.87;55.15
78149;BME280;67396;42.664;23.382;2024-01-25T12:48:15;95169.66;;;6.91;55.22
78149;BME280;67396;42.664;23.382;2024-01-25T12:50:41;95179.22;;;7.00;55.48
78149;BME280;67396;42.664;23.382;2024-01-25T12:53:12;95161.94;;;7.12;55.17
78149;BME280;67396;42.664;23.382;2024-01-25T12:55:38;95158.28;;;7.24;53.51